Stations météo

Publicité
Chamonix, France (7469): Température de l'air & dewpoint: 23.01.2020 18:00:00 - 29.01.2020 18:00:00 (CET)Chamonix, France (7469): Vitesse du vent & gusts: 23.01.2020 18:00:00 - 29.01.2020 18:00:00 (CET)Chamonix, France (7469): Direction du vent: 23.01.2020 18:00:00 - 29.01.2020 18:00:00 (CET)Chamonix, France (7469): Quantités de précipitations: 23.01.2020 18:00:00 - 29.01.2020 18:00:00 (CET)
Date & Time tt [°C] td [°C] ff [km/h] ff [knt] fx [km/h] fx [knt] dd rr [mm]
29.01.2020 18:00:00 - - - - - - - -
29.01.2020 17:00:00 0,8 0,1 4 2 15 8 S 0,2
29.01.2020 16:00:00 1,0 0,3 4 2 13 7 SW 0,2
29.01.2020 15:00:00 0,9 0,2 4 2 18 10 S 0,6
29.01.2020 14:00:00 1,1 0,1 2 1 13 7 W 0,6
29.01.2020 13:00:00 1,1 0,2 4 2 22 12 S -
29.01.2020 12:00:00 0,7 -0,2 8 4 28 15 SSW 0,6
29.01.2020 11:00:00 0,5 -0,2 8 4 22 12 SW 0,4
29.01.2020 10:00:00 0,4 -0,3 9 5 26 14 WSW 0,6
29.01.2020 09:00:00 0,4 -0,3 9 5 21 11 SW 0,6
29.01.2020 08:00:00 0,6 -0,3 9 5 29 16 SSW 0,6
29.01.2020 07:00:00 0,3 -0,4 9 5 26 14 S -
29.01.2020 06:00:00 0,7 -0,5 5 3 34 18 SW 0,6
29.01.2020 05:00:00 - - - - - - - -
29.01.2020 04:00:00 0,6 -0,4 11 6 35 19 SSW 0,4
29.01.2020 03:00:00 - - - - - - - -
29.01.2020 02:00:00 - - - - - - - -
29.01.2020 01:00:00 - - - - - - - -
29.01.2020 00:00:00 - - - - - - - -
28.01.2020 23:00:00 - - - - - - - -
28.01.2020 22:00:00 -0,7 -1,5 2 1 18 10 NNE 0,2
28.01.2020 21:00:00 -0,7 -1,5 4 2 16 9 S 0,6
28.01.2020 20:00:00 -0,4 -1,2 9 5 34 18 S 0,4
28.01.2020 19:00:00 -0,3 -0,9 11 6 39 21 S 0,4
28.01.2020 18:00:00 -0,2 -0,8 9 5 34 18 S 0,4
28.01.2020 17:00:00 0,1 -0,6 13 7 44 24 S 0,2
28.01.2020 16:00:00 0,7 -0,6 13 7 34 18 S 0,2
28.01.2020 15:00:00 - - - - - - - -
28.01.2020 14:00:00 - - - - - - - -
28.01.2020 13:00:00 - - - - - - - -
28.01.2020 12:00:00 - - - - - - - -
28.01.2020 11:00:00 4,2 -0,4 9 5 39 21 S 0,0
28.01.2020 10:00:00 3,2 0,3 5 3 29 16 SSW 0,2
28.01.2020 09:00:00 - - - - - - - -
28.01.2020 08:00:00 - - - - - - - -
28.01.2020 07:00:00 - - - - - - - -
28.01.2020 06:00:00 - - - - - - - -
28.01.2020 05:00:00 - - - - - - - -
28.01.2020 04:00:00 - - - - - - - -
28.01.2020 03:00:00 - - - - - - - -
28.01.2020 02:00:00 0,1 -0,2 2 1 8 4 N 0,6
28.01.2020 01:00:00 - - - - - - - -
28.01.2020 00:00:00 - - - - - - - -
27.01.2020 23:00:00 - - - - - - - -
27.01.2020 22:00:00 0,2 -0,5 2 1 9 5 ENE 0,8
27.01.2020 21:00:00 1,3 0,1 2 1 13 7 S 0,8
27.01.2020 20:00:00 - - - - - - - -
27.01.2020 19:00:00 - - - - - - - -
27.01.2020 18:00:00 1,0 -0,5 2 1 8 4 NNE 0,0
27.01.2020 17:00:00 - - - - - - - -
27.01.2020 16:00:00 - - - - - - - -
27.01.2020 15:00:00 3,5 1,2 0 0 8 4 N 0,0
27.01.2020 14:00:00 3,7 1,2 2 1 8 4 NW 0,0
27.01.2020 13:00:00 4,0 0,7 2 1 8 4 NNW -
27.01.2020 12:00:00 0,9 -0,3 4 2 8 4 ESE 0,0
27.01.2020 11:00:00 -0,2 -0,6 2 1 9 5 NNE 0,0
27.01.2020 10:00:00 -1,9 -2,3 0 0 11 6 N 0,0
27.01.2020 09:00:00 -2,6 -3,0 0 0 8 4 N 0,0
27.01.2020 08:00:00 -2,5 -2,8 5 3 11 6 ENE 0,0
27.01.2020 07:00:00 -2,9 -3,3 0 0 8 4 N -
27.01.2020 06:00:00 -2,5 -2,9 4 2 8 4 N 0,0
27.01.2020 05:00:00 -1,5 -1,8 4 2 9 5 NNW 0,0
27.01.2020 04:00:00 -0,8 -1,1 4 2 9 5 N 0,0
27.01.2020 03:00:00 -1,0 -1,4 0 0 9 5 N 0,0
27.01.2020 02:00:00 -0,4 -0,7 2 1 8 4 NW 0,0
27.01.2020 01:00:00 -0,4 -0,7 2 1 5 3 E -
27.01.2020 00:00:00 -0,3 -0,7 2 1 5 3 N 0,0
26.01.2020 23:00:00 -0,3 -0,7 0 0 5 3 N 0,0
26.01.2020 22:00:00 -0,5 -0,9 0 0 4 2 N 0,0
26.01.2020 21:00:00 -0,3 -0,7 2 1 5 3 SE 0,0
26.01.2020 20:00:00 0,2 -0,2 0 0 5 3 N 0,0
26.01.2020 19:00:00 0,3 -0,3 0 0 8 4 N -
26.01.2020 18:00:00 0,6 -0,1 0 0 5 3 N 0,0
26.01.2020 17:00:00 1,3 0,3 2 1 4 2 ESE 0,0
26.01.2020 16:00:00 1,8 0,2 0 0 8 4 N 0,4
26.01.2020 15:00:00 3,5 -1,7 4 2 8 4 WSW 0,0
26.01.2020 14:00:00 3,8 -2,0 0 0 9 5 N 0,0
26.01.2020 13:00:00 3,7 -2,9 4 2 13 7 S -
26.01.2020 12:00:00 2,0 -2,0 2 1 9 5 S 0,0
26.01.2020 11:00:00 -0,8 -1,9 2 1 8 4 NW 0,0
26.01.2020 10:00:00 -2,8 -3,6 2 1 8 4 E 0,0
26.01.2020 09:00:00 -4,8 -5,6 0 0 5 3 N 0,0
26.01.2020 08:00:00 -5,2 -5,9 2 1 8 4 S 0,0
26.01.2020 07:00:00 -5,5 -6,3 0 0 4 2 N -
26.01.2020 06:00:00 -4,9 -5,7 2 1 9 5 E 0,0
26.01.2020 05:00:00 -4,5 -5,2 4 2 9 5 NNE 0,0
26.01.2020 04:00:00 -4,8 -5,5 2 1 5 3 E 0,0
26.01.2020 03:00:00 -5,1 -5,9 0 0 5 3 N 0,0
26.01.2020 02:00:00 -4,6 -5,3 2 1 8 4 ENE 0,0
26.01.2020 01:00:00 -4,6 -5,4 0 0 8 4 N -
26.01.2020 00:00:00 -4,4 -5,2 0 0 5 3 N 0,0
25.01.2020 23:00:00 -4,1 -5,1 0 0 5 3 N 0,0
25.01.2020 22:00:00 -3,4 -4,4 2 1 8 4 NNE 0,0
25.01.2020 21:00:00 -3,0 -4,1 2 1 5 3 E 0,0
25.01.2020 20:00:00 -2,6 -4,0 2 1 4 2 NNE 0,0
25.01.2020 19:00:00 -1,8 -3,7 0 0 4 2 N -
25.01.2020 18:00:00 -0,3 -3,2 2 1 9 5 E 0,0
25.01.2020 17:00:00 4,3 -2,8 2 1 11 6 WSW 0,0
25.01.2020 16:00:00 6,7 -2,7 4 2 11 6 S 0,0
25.01.2020 15:00:00 7,0 -3,6 4 2 15 8 SSW 0,0
25.01.2020 14:00:00 8,7 -2,9 0 0 4 2 N 0,0
25.01.2020 13:00:00 4,8 -0,6 0 0 5 3 N -
25.01.2020 12:00:00 -1,5 -2,3 0 0 4 2 N 0,0
25.01.2020 11:00:00 -3,0 -3,7 2 1 5 3 E 0,0
25.01.2020 10:00:00 -4,5 -5,2 0 0 4 2 N 0,0
25.01.2020 09:00:00 -5,5 -6,3 0 0 4 2 N 0,0
25.01.2020 08:00:00 -5,8 -6,6 2 1 5 3 NNW 0,0
25.01.2020 07:00:00 -5,6 -6,4 0 0 5 3 N -
25.01.2020 06:00:00 -5,3 -6,1 0 0 8 4 N 0,0
25.01.2020 05:00:00 -5,0 -5,7 0 0 4 2 N 0,0
25.01.2020 04:00:00 -4,8 -5,5 0 0 4 2 N 0,0
25.01.2020 03:00:00 -4,3 -5,0 0 0 8 4 N 0,0
25.01.2020 02:00:00 -4,0 -4,7 0 0 4 2 N 0,0
25.01.2020 01:00:00 -3,5 -4,3 2 1 5 3 NNE -
25.01.2020 00:00:00 -3,1 -3,9 0 0 5 3 N 0,0
24.01.2020 23:00:00 -2,6 -3,6 2 1 5 3 ESE 0,0
24.01.2020 22:00:00 -2,0 -3,3 0 0 8 4 N 0,0
24.01.2020 21:00:00 -1,6 -2,9 4 2 8 4 NNW 0,0
24.01.2020 20:00:00 -1,5 -2,6 2 1 8 4 E 0,0
24.01.2020 19:00:00 -1,2 -2,6 2 1 9 5 E -
24.01.2020 18:00:00 0,2 -2,0 2 1 8 4 E 0,0
24.01.2020 17:00:00 2,0 -1,6 2 1 8 4 WNW 0,0
24.01.2020 16:00:00 4,0 -1,8 0 0 11 6 N 0,0
24.01.2020 15:00:00 5,4 -2,2 5 3 11 6 S 0,0
24.01.2020 14:00:00 4,6 -1,0 0 0 8 4 N 0,0
24.01.2020 13:00:00 3,3 -1,8 4 2 9 5 SE -
24.01.2020 12:00:00 2,0 -2,0 4 2 8 4 NNE 0,0
24.01.2020 11:00:00 -0,5 -2,2 4 2 9 5 NE 0,0
24.01.2020 10:00:00 -2,0 -3,4 2 1 9 5 NE 0,0
24.01.2020 09:00:00 -3,1 -4,2 2 1 8 4 WNW 0,0
24.01.2020 08:00:00 -3,8 -4,6 2 1 9 5 S 0,0
24.01.2020 07:00:00 -4,1 -5,1 2 1 8 4 NNW -
24.01.2020 06:00:00 -3,7 -4,8 4 2 9 5 ENE 0,0
24.01.2020 05:00:00 -3,8 -4,6 2 1 8 4 NE 0,0
24.01.2020 04:00:00 -3,6 -4,7 4 2 18 10 NNE 0,0
24.01.2020 03:00:00 -4,4 -5,2 2 1 9 5 NE 0,0
24.01.2020 02:00:00 -4,0 -5,0 4 2 16 9 SSE 0,0
24.01.2020 01:00:00 -3,7 -4,7 4 2 11 6 E -
24.01.2020 00:00:00 -3,3 -4,1 4 2 11 6 E 0,0
23.01.2020 23:00:00 -3,4 -4,2 2 1 9 5 N 0,0
23.01.2020 22:00:00 -2,9 -3,7 4 2 9 5 NE 0,0
23.01.2020 21:00:00 -2,6 -3,6 2 1 8 4 ESE 0,0
23.01.2020 20:00:00 -2,2 -3,3 2 1 9 5 N 0,0
23.01.2020 19:00:00 -1,6 -2,9 4 2 8 4 ENE -
23.01.2020 18:00:00 -0,5 -2,9 0 0 9 5 N 0,0

tt = Température de l'air
td = dewpoint
ff = Vitesse du vent
fx = gusts
dd = Direction du vent
rr = Quantités de précipitations

stations d'obs. à proximité